Time;durP1;ratioP1;P1;durP2;ratioP2;P2;SDS_P1;SDS_P2;PMS_P1;PMS_P2;Temp;Humidity;BMP_temperature;BMP_pressure;BME280_temperature;BME280_humidity;BME280_pressure;Samples;Min_cycle;Max_cycle;Signal;HPM_P1;HPM_P2
2023/12/22 00:00:02;;;;;;;2.00;1.10;;;23.20;45.20;;;;;;6147928;28;80911;-61
2023/12/22 00:03:05;;;;;;;1.52;1.00;;;23.10;45.00;;;;;;6155206;28;81075;-60
2023/12/22 00:06:05;;;;;;;1.38;1.05;;;23.20;44.90;;;;;;6160869;28;81702;-60
2023/12/22 00:09:06;;;;;;;1.38;0.70;;;23.10;44.90;;;;;;6159047;28;83044;-60
2023/12/22 00:12:06;;;;;;;2.35;1.17;;;23.10;44.80;;;;;;6160050;28;80639;-65
2023/12/22 00:15:07;;;;;;;1.20;0.80;;;23.20;44.90;;;;;;6160784;28;92122;-65
2023/12/22 00:18:08;;;;;;;2.42;1.15;;;23.20;44.70;;;;;;6162292;28;83207;-65
2023/12/22 00:21:08;;;;;;;1.67;0.95;;;23.20;44.70;;;;;;6162159;28;81682;-63
2023/12/22 00:24:09;;;;;;;1.15;0.85;;;23.20;44.90;;;;;;6162126;28;81069;-65
2023/12/22 00:27:09;;;;;;;1.60;0.90;;;23.20;44.80;;;;;;6162867;28;83231;-64
2023/12/22 00:30:10;;;;;;;2.20;1.00;;;23.20;44.90;;;;;;6161357;28;81068;-66
2023/12/22 00:33:10;;;;;;;1.95;1.15;;;23.20;44.90;;;;;;6156612;28;80979;-65
2023/12/22 00:36:11;;;;;;;2.78;0.95;;;23.20;45.10;;;;;;6150442;28;83331;-72
2023/12/22 00:39:11;;;;;;;2.35;1.10;;;23.20;45.20;;;;;;6160525;28;81402;-70
2023/12/22 00:42:12;;;;;;;3.40;1.45;;;23.20;45.20;;;;;;6160589;28;81539;-65
2023/12/22 00:45:12;;;;;;;2.00;0.95;;;23.20;44.90;;;;;;6155832;28;81180;-66
2023/12/22 00:48:13;;;;;;;2.50;1.13;;;23.20;45.30;;;;;;6145824;28;81307;-64
2023/12/22 00:51:13;;;;;;;2.63;1.23;;;23.20;45.10;;;;;;6158718;28;81095;-65
2023/12/22 00:54:14;;;;;;;5.68;1.23;;;23.20;45.20;;;;;;6152017;28;80916;-66
2023/12/22 00:57:14;;;;;;;1.80;1.10;;;23.20;45.00;;;;;;6156673;28;81004;-66
2023/12/22 01:00:15;;;;;;;2.10;0.90;;;23.20;45.60;;;;;;6151368;28;82539;-66
2023/12/22 01:03:15;;;;;;;2.90;1.10;;;23.30;44.90;;;;;;6143822;28;81349;-66
2023/12/22 01:06:16;;;;;;;2.40;1.42;;;23.20;44.80;;;;;;6147350;28;81197;-66
2023/12/22 01:09:16;;;;;;;1.85;1.00;;;23.20;44.90;;;;;;6159131;28;81441;-66
2023/12/22 01:12:17;;;;;;;3.63;1.15;;;23.20;44.80;;;;;;6159058;28;81778;-66
2023/12/22 01:15:18;;;;;;;2.30;1.25;;;23.20;44.90;;;;;;6160032;28;80915;-65
2023/12/22 01:18:18;;;;;;;3.25;1.27;;;23.20;45.00;;;;;;6160105;28;81042;-65
2023/12/22 01:21:19;;;;;;;2.20;1.08;;;23.20;45.20;;;;;;6162839;28;81022;-64
2023/12/22 01:24:19;;;;;;;3.58;1.00;;;23.20;45.20;;;;;;6159682;28;82540;-60
2023/12/22 01:27:20;;;;;;;2.83;1.50;;;23.20;45.20;;;;;;6153587;28;80609;-59
2023/12/22 01:30:20;;;;;;;2.65;1.00;;;23.20;45.20;;;;;;6165122;28;80698;-59
2023/12/22 01:33:21;;;;;;;2.60;1.30;;;23.20;45.40;;;;;;6158523;28;80654;-60
2023/12/22 01:36:21;;;;;;;2.10;1.10;;;23.20;45.20;;;;;;6159552;28;81260;-61
2023/12/22 01:39:22;;;;;;;4.85;1.33;;;23.20;45.00;;;;;;6167423;28;80588;-60
2023/12/22 01:42:22;;;;;;;3.03;1.20;;;23.20;44.90;;;;;;6156823;28;83318;-59
2023/12/22 01:45:23;;;;;;;1.95;1.10;;;23.20;44.80;;;;;;6162291;28;81440;-60
2023/12/22 01:48:23;;;;;;;2.45;1.27;;;23.20;44.90;;;;;;6157864;28;80978;-60
2023/12/22 01:51:24;;;;;;;2.72;1.17;;;23.20;44.80;;;;;;6162076;28;81019;-59
2023/12/22 01:54:24;;;;;;;3.38;1.55;;;23.20;45.10;;;;;;6147027;28;81017;-59
2023/12/22 01:57:25;;;;;;;1.92;1.33;;;23.20;44.70;;;;;;6147613;28;81274;-58
2023/12/22 02:00:25;;;;;;;2.35;1.23;;;23.20;44.40;;;;;;6151707;28;81073;-58
2023/12/22 02:03:26;;;;;;;2.45;1.33;;;23.20;44.50;;;;;;6163692;28;80921;-58
2023/12/22 02:06:26;;;;;;;3.28;2.00;;;23.20;44.50;;;;;;6164282;28;81190;-57
2023/12/22 02:09:27;;;;;;;2.53;1.20;;;23.20;44.50;;;;;;6149721;28;80342;-59
2023/12/22 02:12:27;;;;;;;4.55;1.55;;;23.20;44.40;;;;;;6151232;28;88149;-58
2023/12/22 02:15:28;;;;;;;2.40;1.30;;;23.20;45.00;;;;;;6170600;28;82561;-61
2023/12/22 02:18:28;;;;;;;2.65;1.30;;;23.20;44.30;;;;;;6159701;28;81888;-64
2023/12/22 02:21:29;;;;;;;3.20;1.73;;;23.20;44.30;;;;;;6149928;28;80700;-64
2023/12/22 02:24:32;;;;;;;2.88;1.52;;;23.20;44.20;;;;;;6148525;28;80681;-65
2023/12/22 02:27:33;;;;;;;2.42;1.15;;;23.20;44.30;;;;;;6153273;28;81387;-65
2023/12/22 02:30:33;;;;;;;2.80;1.50;;;23.20;44.20;;;;;;6157225;28;80857;-65
2023/12/22 02:33:34;;;;;;;2.95;1.02;;;23.20;44.20;;;;;;6153258;28;81426;-67
2023/12/22 02:36:34;;;;;;;3.47;1.20;;;23.20;44.20;;;;;;6175645;28;80620;-61
2023/12/22 02:39:35;;;;;;;3.95;1.23;;;23.20;44.30;;;;;;6156245;28;80115;-61
2023/12/22 02:42:35;;;;;;;3.17;1.50;;;23.20;44.30;;;;;;6158796;28;81728;-61
2023/12/22 02:45:36;;;;;;;2.92;1.65;;;23.20;44.30;;;;;;6172818;28;80767;-60
2023/12/22 02:48:36;;;;;;;2.63;1.30;;;23.20;44.70;;;;;;6153693;28;81520;-61
2023/12/22 02:51:37;;;;;;;5.47;1.80;;;23.20;44.60;;;;;;6155143;28;80696;-60
2023/12/22 02:54:39;;;;;;;2.50;1.15;;;23.20;44.50;;;;;;6165750;28;80435;-60
2023/12/22 02:57:40;;;;;;;1.75;1.10;;;23.20;44.40;;;;;;6154958;28;82451;-59
2023/12/22 03:00:40;;;;;;;2.60;1.25;;;23.20;44.30;;;;;;6176744;28;80985;-59
2023/12/22 03:03:41;;;;;;;2.50;1.20;;;23.20;44.20;;;;;;6165602;28;81505;-58
2023/12/22 03:06:41;;;;;;;3.72;1.17;;;23.20;44.50;;;;;;6167868;28;81369;-58
2023/12/22 03:09:42;;;;;;;2.08;1.10;;;23.20;44.30;;;;;;6153964;28;80867;-58
2023/12/22 03:12:42;;;;;;;2.10;1.08;;;23.20;44.10;;;;;;6168394;28;81404;-59
2023/12/22 03:15:43;;;;;;;3.50;1.48;;;23.20;43.90;;;;;;6168516;28;80530;-59
2023/12/22 03:18:43;;;;;;;6.65;1.42;;;23.20;44.20;;;;;;6172709;28;81035;-60
2023/12/22 03:21:44;;;;;;;3.72;1.48;;;23.20;43.90;;;;;;6163169;28;80408;-59
2023/12/22 03:24:44;;;;;;;5.00;1.67;;;23.20;44.10;;;;;;6154425;28;80606;-59
2023/12/22 03:27:45;;;;;;;1.85;1.30;;;23.20;44.00;;;;;;6155107;28;81618;-58
2023/12/22 03:30:45;;;;;;;2.63;1.27;;;23.20;43.90;;;;;;6173166;28;80344;-58
2023/12/22 03:33:46;;;;;;;3.00;0.93;;;23.20;43.70;;;;;;6161484;28;80613;-59
2023/12/22 03:36:48;;;;;;;2.17;1.15;;;23.20;43.80;;;;;;6158247;28;80288;-57
2023/12/22 03:39:49;;;;;;;3.03;1.33;;;23.20;43.80;;;;;;6174677;28;81505;-60
2023/12/22 03:42:49;;;;;;;2.28;1.40;;;23.20;44.00;;;;;;6173362;28;80556;-59
2023/12/22 03:45:50;;;;;;;5.10;0.98;;;23.20;43.70;;;;;;6169415;28;80376;-59
2023/12/22 03:48:50;;;;;;;4.30;1.55;;;23.20;43.60;;;;;;6158447;28;83188;-60
2023/12/22 03:51:51;;;;;;;2.92;1.10;;;23.20;43.70;;;;;;6166628;28;81693;-59
2023/12/22 03:54:51;;;;;;;2.13;1.25;;;23.20;43.60;;;;;;6162928;28;81634;-58
2023/12/22 03:57:51;;;;;;;2.58;1.20;;;23.20;43.40;;;;;;6177601;28;80800;-58
2023/12/22 04:00:52;;;;;;;2.75;1.20;;;23.20;43.50;;;;;;6175869;28;80959;-57
2023/12/22 04:03:53;;;;;;;2.72;1.13;;;23.20;43.60;;;;;;6177900;28;80355;-58
2023/12/22 04:06:53;;;;;;;1.38;0.95;;;23.20;43.50;;;;;;6164447;28;81468;-57
2023/12/22 04:09:54;;;;;;;3.53;1.00;;;23.20;43.70;;;;;;6154713;28;80444;-64
2023/12/22 04:12:54;;;;;;;1.77;1.00;;;23.20;43.70;;;;;;6172621;28;80529;-64
2023/12/22 04:15:54;;;;;;;3.40;1.25;;;23.20;43.50;;;;;;6177123;28;81038;-67
2023/12/22 04:18:55;;;;;;;3.45;1.10;;;23.20;44.40;;;;;;6176815;28;81381;-65
2023/12/22 04:21:56;;;;;;;3.45;1.40;;;23.20;43.50;;;;;;6175689;28;81847;-65
2023/12/22 04:24:56;;;;;;;2.13;1.00;;;23.20;43.20;;;;;;6161037;28;80560;-66
2023/12/22 04:27:57;;;;;;;1.92;1.00;;;23.20;43.30;;;;;;6166352;28;80446;-65
2023/12/22 04:30:57;;;;;;;1.88;1.10;;;23.30;43.20;;;;;;6151058;28;81432;-67
2023/12/22 04:33:58;;;;;;;2.53;0.90;;;23.30;43.20;;;;;;6150413;28;81838;-68
2023/12/22 04:36:58;;;;;;;2.85;1.00;;;23.30;43.20;;;;;;6150605;28;80711;-67
2023/12/22 04:39:58;;;;;;;1.83;1.00;;;23.30;43.00;;;;;;6152486;28;80558;-67
2023/12/22 04:42:59;;;;;;;3.33;1.00;;;23.30;42.90;;;;;;6156092;28;81808;-66
2023/12/22 04:45:59;;;;;;;3.08;1.23;;;23.30;42.70;;;;;;6175610;28;80720;-61
2023/12/22 04:49:01;;;;;;;1.58;0.98;;;23.40;42.90;;;;;;6167678;28;86910;-59
2023/12/22 04:52:02;;;;;;;3.78;1.58;;;23.40;43.00;;;;;;6161096;28;81551;-61
2023/12/22 04:55:02;;;;;;;1.98;1.00;;;23.40;43.10;;;;;;6165473;28;87203;-60
2023/12/22 04:58:03;;;;;;;2.38;1.10;;;23.50;43.20;;;;;;6166903;28;81416;-60
2023/12/22 05:01:03;;;;;;;2.80;1.25;;;23.50;43.10;;;;;;6171288;28;81310;-60
2023/12/22 05:04:04;;;;;;;3.60;1.00;;;23.50;43.00;;;;;;6160157;28;80901;-60
2023/12/22 05:07:06;;;;;;;2.25;1.00;;;23.50;43.10;;;;;;6165341;28;80771;-59
2023/12/22 05:10:07;;;;;;;2.28;1.13;;;23.50;42.90;;;;;;6165308;28;81812;-59
2023/12/22 05:13:07;;;;;;;2.95;1.08;;;23.50;43.00;;;;;;6167257;28;80730;-60
2023/12/22 05:16:08;;;;;;;3.58;1.10;;;23.50;43.10;;;;;;6165882;28;80807;-59
2023/12/22 05:19:08;;;;;;;3.13;1.13;;;23.50;42.90;;;;;;6165138;28;80386;-60
2023/12/22 05:22:09;;;;;;;2.25;1.20;;;23.50;43.00;;;;;;6166718;28;80427;-64
2023/12/22 05:25:12;;;;;;;2.45;1.20;;;23.60;42.90;;;;;;6167246;28;80842;-68
2023/12/22 05:28:13;;;;;;;3.42;1.33;;;23.60;43.00;;;;;;6168756;28;80608;-66
2023/12/22 05:31:13;;;;;;;2.30;1.10;;;23.60;43.00;;;;;;6170968;28;80885;-70
2023/12/22 05:34:14;;;;;;;3.10;1.58;;;23.60;43.00;;;;;;6169453;28;80488;-67
2023/12/22 05:37:15;;;;;;;3.78;1.23;;;23.60;43.00;;;;;;6170176;28;83184;-69
2023/12/22 05:40:15;;;;;;;2.45;1.20;;;23.60;43.00;;;;;;6168878;28;80421;-67
2023/12/22 05:43:16;;;;;;;3.65;1.08;;;23.60;43.00;;;;;;6166729;28;80466;-67
2023/12/22 05:46:16;;;;;;;2.58;0.82;;;23.60;42.90;;;;;;6168601;28;80934;-66
2023/12/22 05:49:17;;;;;;;2.95;0.80;;;23.60;42.80;;;;;;6161447;28;81669;-67
2023/12/22 05:52:17;;;;;;;1.08;0.60;;;23.70;42.90;;;;;;6155880;28;87825;-67
2023/12/22 05:55:18;;;;;;;1.73;0.90;;;23.60;42.70;;;;;;6169564;28;80680;-65
2023/12/22 05:58:18;;;;;;;2.42;0.98;;;23.70;42.80;;;;;;6167310;28;80496;-66
2023/12/22 06:01:19;;;;;;;2.10;0.88;;;23.70;42.80;;;;;;6170499;28;83882;-66
2023/12/22 06:04:19;;;;;;;1.38;0.80;;;23.70;42.70;;;;;;6176126;28;80053;-66
2023/12/22 06:07:20;;;;;;;1.85;0.85;;;23.70;42.70;;;;;;6176237;28;81368;-65
2023/12/22 06:10:20;;;;;;;3.13;1.00;;;23.70;42.50;;;;;;6173472;28;80500;-66
2023/12/22 06:13:21;;;;;;;1.95;0.80;;;23.70;42.50;;;;;;6173420;28;81798;-65
2023/12/22 06:16:21;;;;;;;2.15;0.80;;;23.70;42.40;;;;;;6176128;28;80184;-63
2023/12/22 06:19:24;;;;;;;1.65;0.80;;;23.70;42.40;;;;;;6160296;28;80670;-60
2023/12/22 06:22:25;;;;;;;1.27;0.70;;;23.70;42.30;;;;;;6153784;28;82901;-60
2023/12/22 06:25:25;;;;;;;3.20;0.60;;;23.70;42.40;;;;;;6150193;28;81050;-61
2023/12/22 06:28:26;;;;;;;2.40;0.85;;;23.70;42.70;;;;;;6146241;28;81758;-59
2023/12/22 06:31:26;;;;;;;2.78;0.73;;;23.70;42.80;;;;;;6161904;28;80699;-61
2023/12/22 06:34:27;;;;;;;1.77;0.70;;;23.70;42.80;;;;;;6158678;28;85187;-63
2023/12/22 06:37:28;;;;;;;1.60;0.80;;;23.60;42.70;;;;;;6166959;28;80920;-60
2023/12/22 06:40:28;;;;;;;1.63;0.77;;;23.60;42.80;;;;;;6162576;28;80658;-60
2023/12/22 06:43:28;;;;;;;1.15;0.70;;;23.60;43.10;;;;;;6172925;28;80605;-59
2023/12/22 06:46:30;;;;;;;5.18;1.00;;;23.60;42.80;;;;;;6162313;28;80757;-61
2023/12/22 06:49:30;;;;;;;1.88;1.02;;;23.60;43.00;;;;;;6165701;28;82095;-60
2023/12/22 06:52:31;;;;;;;6.35;1.10;;;23.60;43.30;;;;;;6173924;28;80379;-60
2023/12/22 06:55:31;;;;;;;2.75;1.05;;;23.60;43.20;;;;;;6172006;28;81091;-59
2023/12/22 06:58:32;;;;;;;5.15;0.80;;;23.60;43.00;;;;;;6172321;28;80631;-59
2023/12/22 07:01:32;;;;;;;5.47;0.82;;;23.50;43.00;;;;;;6174345;28;83156;-60
2023/12/22 07:04:33;;;;;;;1.92;1.00;;;23.60;43.10;;;;;;6173261;28;85364;-61
2023/12/22 07:07:33;;;;;;;1.58;0.77;;;23.60;42.90;;;;;;6173832;28;80495;-63
2023/12/22 07:10:34;;;;;;;3.67;0.95;;;23.60;42.90;;;;;;6173622;28;80581;-60
2023/12/22 07:13:34;;;;;;;2.38;1.15;;;23.60;42.80;;;;;;6175744;28;83151;-60
2023/12/22 07:16:35;;;;;;;2.83;0.93;;;23.60;42.80;;;;;;6177305;28;80418;-58
2023/12/22 07:19:35;;;;;;;2.63;1.00;;;23.50;43.10;;;;;;6177517;28;81660;-59
2023/12/22 07:22:36;;;;;;;3.28;1.10;;;23.50;42.50;;;;;;6162216;28;81723;-60
2023/12/22 07:25:38;;;;;;;1.90;1.10;;;23.50;42.50;;;;;;6171263;28;81624;-60
2023/12/22 07:28:38;;;;;;;4.47;1.10;;;23.50;42.90;;;;;;6173968;28;85540;-59
2023/12/22 07:31:39;;;;;;;3.88;1.30;;;23.40;42.50;;;;;;6176871;28;80680;-59
2023/12/22 07:34:39;;;;;;;7.97;1.13;;;23.50;42.40;;;;;;6171985;28;80704;-58
2023/12/22 07:37:40;;;;;;;7.00;2.60;;;23.50;42.00;;;;;;6175973;28;80810;-59
2023/12/22 07:40:40;;;;;;;9.02;3.67;;;23.60;43.40;;;;;;6170102;28;81118;-59
2023/12/22 07:43:41;;;;;;;10.98;5.65;;;23.60;43.60;;;;;;6175155;28;82194;-57
2023/12/22 07:46:42;;;;;;;15.05;6.25;;;23.60;44.30;;;;;;6173908;28;82200;-58
2023/12/22 07:49:43;;;;;;;8.43;4.50;;;23.60;44.50;;;;;;6173375;28;84401;-55
2023/12/22 07:52:43;;;;;;;11.00;5.47;;;23.60;44.90;;;;;;6172466;28;81963;-59
2023/12/22 07:55:44;;;;;;;15.27;7.03;;;23.60;45.20;;;;;;6167469;28;80651;-55
2023/12/22 07:58:44;;;;;;;13.63;7.50;;;23.70;45.60;;;;;;6173651;28;81101;-53
2023/12/22 08:01:45;;;;;;;15.38;6.32;;;23.70;46.00;;;;;;6174090;28;80909;-58
2023/12/22 08:04:45;;;;;;;12.80;6.18;;;23.70;45.60;;;;;;6176765;28;80066;-54
2023/12/22 08:07:46;;;;;;;9.60;5.00;;;23.70;45.90;;;;;;6169805;28;80710;-58
2023/12/22 08:10:48;;;;;;;17.45;5.82;;;23.70;46.10;;;;;;6173873;28;85888;-58
2023/12/22 08:13:48;;;;;;;9.30;4.38;;;23.70;46.40;;;;;;6169174;28;80388;-58
2023/12/22 08:16:49;;;;;;;8.68;4.43;;;23.70;46.30;;;;;;6169725;28;80931;-57
2023/12/22 08:19:49;;;;;;;7.50;4.03;;;23.70;46.40;;;;;;6173332;28;81024;-59
2023/12/22 08:22:50;;;;;;;11.23;3.67;;;23.80;46.40;;;;;;6173750;28;80739;-59
2023/12/22 08:25:51;;;;;;;9.02;4.03;;;23.90;46.00;;;;;;6171504;28;81577;-58
2023/12/22 08:28:52;;;;;;;12.63;3.22;;;23.90;46.30;;;;;;6169571;28;81171;-55
2023/12/22 08:31:53;;;;;;;8.38;3.63;;;23.90;46.70;;;;;;6164052;28;81807;-55
2023/12/22 08:34:54;;;;;;;10.00;3.67;;;23.90;46.70;;;;;;6174514;28;80454;-58
2023/12/22 08:37:54;;;;;;;17.90;3.47;;;23.90;47.50;;;;;;6173184;28;80431;-58
2023/12/22 08:40:54;;;;;;;6.88;2.95;;;24.00;48.10;;;;;;6173100;28;80394;-58
2023/12/22 08:43:55;;;;;;;6.50;2.38;;;24.00;48.20;;;;;;6174110;28;80752;-66
2023/12/22 08:46:55;;;;;;;6.00;2.67;;;24.00;47.40;;;;;;6152178;28;81438;-64
2023/12/22 08:49:56;;;;;;;9.60;2.60;;;24.00;46.60;;;;;;6174053;28;82254;-63
2023/12/22 08:52:56;;;;;;;11.35;2.50;;;24.00;46.70;;;;;;6173207;28;81735;-65
2023/12/22 08:55:57;;;;;;;5.22;2.20;;;24.00;46.90;;;;;;6163344;28;81018;-63
2023/12/22 08:59:00;;;;;;;6.38;2.53;;;24.10;47.00;;;;;;6172843;28;80640;-66
2023/12/22 09:02:01;;;;;;;5.70;2.45;;;24.10;47.10;;;;;;6169054;28;82114;-61
2023/12/22 09:05:02;;;;;;;8.60;2.38;;;24.10;46.80;;;;;;6152736;28;80424;-61
2023/12/22 09:08:02;;;;;;;23.63;10.55;;;24.10;46.50;;;;;;6170235;28;82082;-63
2023/12/22 09:11:03;;;;;;;221.02;114.93;;;24.00;46.00;;;;;;6153369;28;83659;-64
2023/12/22 09:14:03;;;;;;;261.67;138.13;;;24.00;45.90;;;;;;6156589;28;85721;-63
2023/12/22 09:17:04;;;;;;;325.80;169.88;;;23.90;45.90;;;;;;6151170;28;85663;-60
2023/12/22 09:20:04;;;;;;;387.90;188.85;;;24.00;45.70;;;;;;6149933;28;85948;-60
2023/12/22 09:23:07;;;;;;;358.80;170.98;;;23.90;46.30;;;;;;6150264;28;85949;-55
2023/12/22 09:26:08;;;;;;;286.33;139.68;;;23.90;46.00;;;;;;6159767;28;86269;-59
2023/12/22 09:29:08;;;;;;;261.73;128.05;;;23.90;46.00;;;;;;6159800;28;86202;-60
2023/12/22 09:32:09;;;;;;;205.02;101.25;;;23.90;45.90;;;;;;6160307;28;86411;-61
2023/12/22 09:35:09;;;;;;;195.98;97.28;;;23.90;46.00;;;;;;6159760;28;90617;-53
2023/12/22 09:38:10;;;;;;;163.02;78.13;;;23.90;46.10;;;;;;6166360;28;85316;-59
2023/12/22 09:41:10;;;;;;;175.18;87.47;;;23.80;46.80;;;;;;6170494;28;83224;-64
2023/12/22 09:44:11;;;;;;;198.60;99.35;;;23.80;47.10;;;;;;6169679;28;88560;-65
2023/12/22 09:47:12;;;;;;;207.30;101.20;;;23.80;47.50;;;;;;6167576;28;83503;-65
2023/12/22 09:50:13;;;;;;;188.18;93.50;;;23.80;47.60;;;;;;6168930;28;86558;-66
2023/12/22 09:53:13;;;;;;;192.68;96.47;;;23.80;48.10;;;;;;6164407;28;85539;-61
2023/12/22 09:56:15;;;;;;;199.75;99.90;;;23.80;47.60;;;;;;6155260;28;83142;-61
2023/12/22 09:59:15;;;;;;;182.27;95.00;;;23.70;50.40;;;;;;6172217;28;83302;-59
2023/12/22 10:02:15;;;;;;;177.90;93.28;;;23.70;50.00;;;;;;6172171;28;83259;-60
2023/12/22 10:05:17;;;;;;;153.90;78.38;;;23.70;49.00;;;;;;6159414;28;83715;-60
2023/12/22 10:08:19;;;;;;;121.60;63.00;;;23.80;49.10;;;;;;6173592;28;87189;-59
2023/12/22 10:11:20;;;;;;;119.90;61.10;;;23.90;48.40;;;;;;6168499;28;83640;-59
2023/12/22 10:14:22;;;;;;;111.55;54.75;;;23.90;47.80;;;;;;6172213;28;83247;-59
2023/12/22 10:17:22;;;;;;;101.72;50.28;;;23.90;47.90;;;;;;6172901;28;83517;-60
2023/12/22 10:20:23;;;;;;;97.18;47.38;;;23.90;48.50;;;;;;6155788;28;83617;-60
2023/12/22 10:23:24;;;;;;;86.32;42.70;;;23.80;48.70;;;;;;6160724;28;84578;-60
2023/12/22 10:26:24;;;;;;;75.15;36.88;;;23.80;48.60;;;;;;6170360;28;83266;-61
2023/12/22 10:29:25;;;;;;;67.88;32.95;;;23.70;48.90;;;;;;6169912;28;83160;-60
2023/12/22 10:32:25;;;;;;;74.13;32.10;;;23.70;49.60;;;;;;6172615;28;83107;-60
2023/12/22 10:35:26;;;;;;;58.58;30.83;;;23.70;49.00;;;;;;6173851;28;85110;-60
2023/12/22 10:38:26;;;;;;;54.60;28.38;;;23.70;49.20;;;;;;6173524;28;83310;-60
2023/12/22 10:41:26;;;;;;;53.95;25.75;;;23.70;49.20;;;;;;6169755;28;82836;-59
2023/12/22 10:44:27;;;;;;;44.83;23.48;;;23.70;49.00;;;;;;6172559;28;83012;-60
2023/12/22 10:47:27;;;;;;;39.83;20.23;;;23.70;49.20;;;;;;6176164;28;83884;-60
2023/12/22 10:50:28;;;;;;;32.42;17.95;;;23.70;49.40;;;;;;6178626;28;84009;-60
2023/12/22 10:53:28;;;;;;;36.58;17.17;;;23.70;48.90;;;;;;6174203;28;85712;-59
2023/12/22 10:56:29;;;;;;;29.15;15.45;;;23.70;48.90;;;;;;6165915;28;83125;-61
2023/12/22 10:59:30;;;;;;;31.05;16.40;;;23.70;49.00;;;;;;6176768;28;83357;-61
2023/12/22 11:02:31;;;;;;;27.70;13.93;;;23.80;48.40;;;;;;6176865;28;83398;-60
2023/12/22 11:05:31;;;;;;;26.38;13.35;;;23.80;47.90;;;;;;6166131;28;85679;-60
2023/12/22 11:08:31;;;;;;;22.95;10.68;;;23.80;47.80;;;;;;6168696;28;83419;-59
2023/12/22 11:11:32;;;;;;;21.48;10.63;;;23.80;47.60;;;;;;6172453;28;84024;-60
2023/12/22 11:14:32;;;;;;;16.50;9.90;;;23.80;47.20;;;;;;6170740;28;83468;-60
2023/12/22 11:17:34;;;;;;;16.67;8.73;;;23.80;47.40;;;;;;6174910;28;83904;-59
2023/12/22 11:20:34;;;;;;;17.88;8.77;;;23.80;47.20;;;;;;6171206;28;81012;-59
2023/12/22 11:23:35;;;;;;;15.00;8.57;;;23.80;47.70;;;;;;6179058;28;80286;-59
2023/12/22 11:26:35;;;;;;;17.33;9.20;;;23.80;47.30;;;;;;6176671;28;81592;-59
2023/12/22 11:29:36;;;;;;;15.52;8.15;;;23.70;47.10;;;;;;6167507;28;81782;-63
2023/12/22 11:32:36;;;;;;;16.75;7.95;;;23.80;47.10;;;;;;6164662;28;83348;-63
2023/12/22 11:35:37;;;;;;;14.00;8.07;;;23.80;47.10;;;;;;6162131;28;80713;-61
2023/12/22 11:38:37;;;;;;;16.95;8.00;;;23.80;46.90;;;;;;6166007;28;81402;-65
2023/12/22 11:41:38;;;;;;;20.23;8.35;;;23.80;47.20;;;;;;6159431;28;81378;-61
2023/12/22 11:44:38;;;;;;;15.90;7.57;;;23.80;47.10;;;;;;6164714;28;80972;-59
2023/12/22 11:47:38;;;;;;;11.70;6.75;;;23.80;46.70;;;;;;6168642;28;81113;-60
2023/12/22 11:50:39;;;;;;;10.82;6.15;;;23.80;46.40;;;;;;6172780;28;80316;-60
2023/12/22 11:53:39;;;;;;;14.52;6.38;;;23.80;46.20;;;;;;6169474;28;81712;-60
2023/12/22 11:56:40;;;;;;;12.23;6.97;;;23.80;46.20;;;;;;6160001;28;80671;-59
2023/12/22 11:59:40;;;;;;;12.93;6.03;;;23.80;46.30;;;;;;6171870;28;80126;-59
2023/12/22 12:02:41;;;;;;;10.82;5.55;;;23.80;46.50;;;;;;6174274;28;81608;-59
2023/12/22 12:05:41;;;;;;;11.45;6.10;;;23.80;46.30;;;;;;6165332;28;80271;-60
2023/12/22 12:08:42;;;;;;;14.10;5.65;;;23.80;46.20;;;;;;6174650;28;81249;-60
2023/12/22 12:11:42;;;;;;;8.88;4.70;;;23.90;45.90;;;;;;6172293;28;80327;-60
2023/12/22 12:14:43;;;;;;;12.23;5.05;;;23.90;45.50;;;;;;6174819;28;80738;-60
2023/12/22 12:17:44;;;;;;;10.95;5.03;;;23.90;45.40;;;;;;6175621;28;80750;-60
2023/12/22 12:20:44;;;;;;;9.40;5.07;;;23.80;45.10;;;;;;6170463;28;80461;-61
2023/12/22 12:23:45;;;;;;;9.35;4.47;;;23.90;45.60;;;;;;6168746;28;80287;-60
2023/12/22 12:26:45;;;;;;;9.10;4.28;;;23.90;45.70;;;;;;6168143;28;80662;-60
2023/12/22 12:29:46;;;;;;;12.32;4.60;;;23.90;45.40;;;;;;6167071;28;82590;-61
2023/12/22 12:32:46;;;;;;;12.18;5.15;;;23.90;45.40;;;;;;6170981;28;80487;-60
2023/12/22 12:35:47;;;;;;;10.88;4.15;;;23.90;45.50;;;;;;6158830;28;84304;-59
2023/12/22 12:38:47;;;;;;;12.60;4.43;;;24.00;45.30;;;;;;6170115;28;82720;-60
2023/12/22 12:41:48;;;;;;;14.88;5.95;;;23.90;45.90;;;;;;6168028;28;83377;-60
2023/12/22 12:44:49;;;;;;;28.80;8.20;;;23.90;46.60;;;;;;6165631;28;82245;-57
2023/12/22 12:47:50;;;;;;;21.88;7.97;;;23.90;47.30;;;;;;6175068;28;80940;-59
2023/12/22 12:50:50;;;;;;;40.10;11.20;;;23.90;47.30;;;;;;6170165;28;80474;-56
2023/12/22 12:53:52;;;;;;;46.58;11.68;;;24.00;47.80;;;;;;6168535;28;83287;-57
2023/12/22 12:56:53;;;;;;;36.10;12.75;;;23.90;47.80;;;;;;6112665;28;1162492;-58
2023/12/22 12:59:53;;;;;;;45.22;13.00;;;24.00;47.80;;;;;;6164661;28;83001;-60
2023/12/22 13:02:55;;;;;;;62.53;16.90;;;23.90;47.60;;;;;;6168842;28;83628;-60
2023/12/22 13:05:55;;;;;;;59.55;18.48;;;23.90;49.60;;;;;;6166107;28;83351;-58
2023/12/22 13:08:56;;;;;;;64.95;18.77;;;23.90;50.20;;;;;;6158291;28;84011;-58
2023/12/22 13:11:56;;;;;;;75.00;22.42;;;23.90;50.90;;;;;;6157578;28;83337;-61
2023/12/22 13:14:57;;;;;;;74.88;19.30;;;23.90;51.20;;;;;;6161981;28;83836;-62
2023/12/22 13:17:57;;;;;;;71.55;19.63;;;23.90;51.60;;;;;;6158331;28;86722;-60
2023/12/22 13:20:59;;;;;;;64.75;20.27;;;23.90;51.80;;;;;;6158913;28;83984;-60
2023/12/22 13:23:59;;;;;;;69.28;21.38;;;23.90;52.20;;;;;;6159362;28;83331;-59
2023/12/22 13:27:01;;;;;;;73.47;21.95;;;24.00;52.40;;;;;;6159998;28;84410;-59
2023/12/22 13:30:01;;;;;;;65.72;20.60;;;23.90;52.00;;;;;;6159518;28;83226;-59
2023/12/22 13:33:02;;;;;;;61.80;18.58;;;23.90;51.40;;;;;;6164448;28;83821;-62
2023/12/22 13:36:03;;;;;;;61.53;16.65;;;23.90;51.00;;;;;;6162400;28;83268;-60
2023/12/22 13:39:04;;;;;;;57.40;17.80;;;24.00;50.90;;;;;;6172659;28;84059;-66
2023/12/22 13:42:05;;;;;;;50.40;16.95;;;23.90;50.70;;;;;;6161889;28;83389;-66
2023/12/22 13:45:05;;;;;;;48.83;15.68;;;24.00;50.60;;;;;;6157166;28;83577;-62
2023/12/22 13:48:06;;;;;;;48.28;13.88;;;23.90;50.50;;;;;;6165054;28;83652;-63
2023/12/22 13:51:06;;;;;;;42.33;14.27;;;23.90;50.00;;;;;;6165476;28;83498;-63
2023/12/22 13:54:07;;;;;;;39.33;13.25;;;23.90;50.10;;;;;;6168726;28;83118;-62
2023/12/22 13:57:07;;;;;;;32.10;12.05;;;23.90;50.00;;;;;;6158412;28;83416;-63
2023/12/22 14:00:08;;;;;;;34.40;11.52;;;23.90;49.90;;;;;;6153284;28;83239;-62
2023/12/22 14:03:08;;;;;;;35.42;10.57;;;23.90;49.50;;;;;;6169235;28;83614;-63
2023/12/22 14:06:09;;;;;;;31.42;9.55;;;23.90;49.60;;;;;;6168676;28;83182;-63
2023/12/22 14:09:09;;;;;;;26.17;9.75;;;23.90;48.70;;;;;;6147774;28;82970;-67
2023/12/22 14:12:10;;;;;;;31.35;10.45;;;23.90;49.00;;;;;;6159619;28;81341;-64
2023/12/22 14:15:11;;;;;;;32.47;9.32;;;23.80;49.10;;;;;;6144437;28;87166;-60
2023/12/22 14:18:11;;;;;;;33.25;9.48;;;23.80;49.30;;;;;;6153558;28;81796;-61
2023/12/22 14:21:12;;;;;;;28.52;7.38;;;23.90;49.00;;;;;;6147600;28;80756;-63
2023/12/22 14:24:12;;;;;;;26.75;7.25;;;23.80;48.40;;;;;;6145611;28;81106;-65
2023/12/22 14:27:13;;;;;;;19.10;7.15;;;23.80;48.40;;;;;;6149183;28;81710;-65
2023/12/22 14:30:13;;;;;;;26.63;7.93;;;23.80;48.10;;;;;;6152817;28;81873;-64
2023/12/22 14:33:14;;;;;;;16.48;6.47;;;23.80;47.80;;;;;;6152326;28;81191;-59
2023/12/22 14:36:14;;;;;;;20.35;6.07;;;23.80;47.70;;;;;;6155453;28;80990;-58
2023/12/22 14:39:15;;;;;;;17.40;6.20;;;23.80;47.70;;;;;;6149776;28;81665;-59
2023/12/22 14:42:15;;;;;;;20.40;6.18;;;23.80;48.00;;;;;;6152008;28;81092;-59
2023/12/22 14:45:16;;;;;;;18.85;5.90;;;23.70;47.30;;;;;;6142229;28;83139;-59
2023/12/22 14:48:16;;;;;;;13.27;4.82;;;23.70;47.30;;;;;;6158724;28;80498;-59
2023/12/22 14:51:17;;;;;;;16.92;5.35;;;23.70;47.00;;;;;;6146306;28;82132;-59
2023/12/22 14:54:17;;;;;;;18.67;5.82;;;23.70;47.50;;;;;;6165961;28;81370;-62
2023/12/22 14:57:18;;;;;;;11.57;4.93;;;23.70;47.90;;;;;;6161003;28;81056;-61
2023/12/22 15:00:19;;;;;;;12.43;4.50;;;23.70;47.80;;;;;;6154695;28;81188;-61
2023/12/22 15:03:19;;;;;;;14.30;4.57;;;23.70;47.60;;;;;;6168753;28;80974;-60
2023/12/22 15:06:20;;;;;;;20.10;6.07;;;23.70;47.70;;;;;;6172229;28;80493;-60
2023/12/22 15:09:20;;;;;;;15.30;4.82;;;23.80;47.80;;;;;;6170653;28;80563;-60
2023/12/22 15:12:21;;;;;;;14.48;5.18;;;23.80;47.70;;;;;;6172791;28;80550;-58
2023/12/22 15:15:21;;;;;;;16.08;5.13;;;23.80;47.50;;;;;;6173213;28;80210;-59
2023/12/22 15:18:22;;;;;;;12.55;4.85;;;23.80;47.60;;;;;;6172356;28;82447;-57
2023/12/22 15:21:24;;;;;;;13.45;3.65;;;23.80;47.20;;;;;;6171747;28;80993;-59
2023/12/22 15:24:26;;;;;;;14.15;4.32;;;23.80;47.40;;;;;;6152437;28;82721;-59
2023/12/22 15:27:27;;;;;;;12.27;4.60;;;23.80;47.30;;;;;;6160477;28;80984;-58